sensor_id;sensor_type;location;lat;lon;timestamp;pressure;altitude;pressure_sealevel;temperature;humidity
12146;BME280;6136;47.032;15.398;2023-02-12T00:01:32;99002.56;;;0.03;93.88
12146;BME280;6136;47.032;15.398;2023-02-12T00:04:00;98993.00;;;0.00;94.51
12146;BME280;6136;47.032;15.398;2023-02-12T00:06:29;99006.91;;;0.01;94.68
12146;BME280;6136;47.032;15.398;2023-02-12T00:08:57;99004.31;;;-0.01;94.75
12146;BME280;6136;47.032;15.398;2023-02-12T00:11:26;99006.03;;;0.08;94.22
12146;BME280;6136;47.032;15.398;2023-02-12T00:13:56;99004.34;;;0.13;95.38
12146;BME280;6136;47.032;15.398;2023-02-12T00:16:26;99000.88;;;0.14;94.82
12146;BME280;6136;47.032;15.398;2023-02-12T00:18:55;99000.00;;;0.12;95.09
12146;BME280;6136;47.032;15.398;2023-02-12T00:21:24;98999.13;;;0.07;94.80
12146;BME280;6136;47.032;15.398;2023-02-12T00:23:52;99006.94;;;0.07;95.09
12146;BME280;6136;47.032;15.398;2023-02-12T00:26:21;98997.38;;;0.00;94.78
12146;BME280;6136;47.032;15.398;2023-02-12T00:28:50;98995.63;;;-0.01;95.35
12146;BME280;6136;47.032;15.398;2023-02-12T00:31:21;99006.91;;;0.03;94.98
12146;BME280;6136;47.032;15.398;2023-02-12T00:33:50;99002.56;;;0.03;94.66
12146;BME280;6136;47.032;15.398;2023-02-12T00:36:19;99012.13;;;0.03;94.93
12146;BME280;6136;47.032;15.398;2023-02-12T00:38:50;99019.06;;;-0.03;94.59
12146;BME280;6136;47.032;15.398;2023-02-12T00:41:19;99017.28;;;-0.07;96.95
12146;BME280;6136;47.032;15.398;2023-02-12T00:43:48;99000.81;;;-0.10;96.05
12146;BME280;6136;47.032;15.398;2023-02-12T00:46:16;99016.44;;;-0.10;97.60
12146;BME280;6136;47.032;15.398;2023-02-12T00:48:46;99013.84;;;-0.09;95.71
12146;BME280;6136;47.032;15.398;2023-02-12T00:51:17;99012.94;;;-0.12;97.09
12146;BME280;6136;47.032;15.398;2023-02-12T00:53:45;99010.34;;;-0.11;97.99
12146;BME280;6136;47.032;15.398;2023-02-12T00:56:13;99016.44;;;-0.07;97.01
12146;BME280;6136;47.032;15.398;2023-02-12T00:58:42;99008.63;;;-0.10;97.25
12146;BME280;6136;47.032;15.398;2023-02-12T01:01:10;99014.69;;;-0.07;97.44
12146;BME280;6136;47.032;15.398;2023-02-12T01:03:38;99026.84;;;-0.07;97.56
12146;BME280;6136;47.032;15.398;2023-02-12T01:06:08;99032.94;;;-0.05;98.42
12146;BME280;6136;47.032;15.398;2023-02-12T01:08:36;99048.59;;;-0.04;99.43
12146;BME280;6136;47.032;15.398;2023-02-12T01:11:05;99055.53;;;0.00;99.18
12146;BME280;6136;47.032;15.398;2023-02-12T01:13:34;99045.16;;;0.10;99.74
12146;BME280;6136;47.032;15.398;2023-02-12T01:16:04;99044.28;;;0.15;99.76
12146;BME280;6136;47.032;15.398;2023-02-12T01:18:35;99026.94;;;0.20;98.21
12146;BME280;6136;47.032;15.398;2023-02-12T01:21:10;99014.78;;;0.19;96.86
12146;BME280;6136;47.032;15.398;2023-02-12T01:23:38;99021.75;;;0.34;96.94
12146;BME280;6136;47.032;15.398;2023-02-12T01:26:07;99018.28;;;0.33;97.94
12146;BME280;6136;47.032;15.398;2023-02-12T01:28:37;99034.81;;;0.49;96.85
12146;BME280;6136;47.032;15.398;2023-02-12T01:31:09;99031.34;;;0.56;96.83
12146;BME280;6136;47.032;15.398;2023-02-12T01:33:38;99024.38;;;0.61;95.33
12146;BME280;6136;47.032;15.398;2023-02-12T01:36:07;99033.97;;;0.62;95.13
12146;BME280;6136;47.032;15.398;2023-02-12T01:38:36;99028.72;;;0.61;95.37
12146;BME280;6136;47.032;15.398;2023-02-12T01:41:09;99024.41;;;0.66;95.46
12146;BME280;6136;47.032;15.398;2023-02-12T01:43:37;99044.41;;;0.64;95.96
12146;BME280;6136;47.032;15.398;2023-02-12T01:46:07;99016.59;;;0.66;97.18
12146;BME280;6136;47.032;15.398;2023-02-12T01:48:39;99027.00;;;0.57;95.96
12146;BME280;6136;47.032;15.398;2023-02-12T01:51:12;99020.03;;;0.56;95.67
12146;BME280;6136;47.032;15.398;2023-02-12T01:53:48;99020.91;;;0.64;96.19
12146;BME280;6136;47.032;15.398;2023-02-12T01:56:17;99006.13;;;0.60;96.03
12146;BME280;6136;47.032;15.398;2023-02-12T01:58:47;99008.75;;;0.58;96.31
12146;BME280;6136;47.032;15.398;2023-02-12T02:01:20;99005.25;;;0.70;95.23
12146;BME280;6136;47.032;15.398;2023-02-12T02:03:53;99008.75;;;0.78;95.25
12146;BME280;6136;47.032;15.398;2023-02-12T02:06:26;99006.13;;;0.80;93.46
12146;BME280;6136;47.032;15.398;2023-02-12T02:08:56;99008.72;;;0.83;93.21
12146;BME280;6136;47.032;15.398;2023-02-12T02:11:24;99014.81;;;0.82;92.98
12146;BME280;6136;47.032;15.398;2023-02-12T02:14:10;99025.25;;;0.83;92.97
12146;BME280;6136;47.032;15.398;2023-02-12T02:17:07;99020.91;;;0.82;94.40
12146;BME280;6136;47.032;15.398;2023-02-12T02:19:51;99020.06;;;0.86;94.51
12146;BME280;6136;47.032;15.398;2023-02-12T02:22:33;98988.75;;;0.80;94.74
12146;BME280;6136;47.032;15.398;2023-02-12T02:25:20;99010.47;;;0.84;95.95
12146;BME280;6136;47.032;15.398;2023-02-12T02:28:03;99024.41;;;0.89;95.07
12146;BME280;6136;47.032;15.398;2023-02-12T02:30:43;99028.72;;;0.90;95.04
12146;BME280;6136;47.032;15.398;2023-02-12T02:33:21;99027.88;;;0.85;94.29
12146;BME280;6136;47.032;15.398;2023-02-12T02:35:55;99025.28;;;0.86;93.88
12146;BME280;6136;47.032;15.398;2023-02-12T02:38:32;99036.59;;;0.87;94.17
12146;BME280;6136;47.032;15.398;2023-02-12T02:41:17;99044.41;;;0.87;93.74
12146;BME280;6136;47.032;15.398;2023-02-12T02:43:49;99055.72;;;0.87;94.99
12146;BME280;6136;47.032;15.398;2023-02-12T02:46:26;99047.88;;;0.90;95.58
12146;BME280;6136;47.032;15.398;2023-02-12T02:48:59;99044.41;;;0.71;96.56
12146;BME280;6136;47.032;15.398;2023-02-12T02:51:30;99040.91;;;0.65;95.86
12146;BME280;6136;47.032;15.398;2023-02-12T02:54:04;99035.72;;;0.59;96.75
12146;BME280;6136;47.032;15.398;2023-02-12T02:56:37;99041.78;;;0.58;96.67
12146;BME280;6136;47.032;15.398;2023-02-12T02:59:09;99029.63;;;0.66;96.39
12146;BME280;6136;47.032;15.398;2023-02-12T03:01:43;99047.00;;;0.59;96.89
12146;BME280;6136;47.032;15.398;2023-02-12T03:04:15;99047.88;;;0.57;96.79
12146;BME280;6136;47.032;15.398;2023-02-12T03:07:03;99052.22;;;0.58;97.08
12146;BME280;6136;47.032;15.398;2023-02-12T03:09:37;99046.13;;;0.51;97.71
12146;BME280;6136;47.032;15.398;2023-02-12T03:12:10;99040.91;;;0.44;99.32
12146;BME280;6136;47.032;15.398;2023-02-12T03:14:43;99033.94;;;0.55;98.21
12146;BME280;6136;47.032;15.398;2023-02-12T03:17:17;99046.13;;;0.56;98.51
12146;BME280;6136;47.032;15.398;2023-02-12T03:19:51;99043.53;;;0.51;98.36
12146;BME280;6136;47.032;15.398;2023-02-12T03:22:25;99053.91;;;0.39;99.69
12146;BME280;6136;47.032;15.398;2023-02-12T03:24:57;99054.78;;;0.33;99.27
12146;BME280;6136;47.032;15.398;2023-02-12T03:27:32;99051.31;;;0.33;99.63
12146;BME280;6136;47.032;15.398;2023-02-12T03:30:02;99046.09;;;0.28;99.80
12146;BME280;6136;47.032;15.398;2023-02-12T03:32:40;99053.00;;;0.23;100.00
12146;BME280;6136;47.032;15.398;2023-02-12T03:35:15;99044.31;;;0.18;100.00
12146;BME280;6136;47.032;15.398;2023-02-12T03:37:57;99039.13;;;0.21;100.00
12146;BME280;6136;47.032;15.398;2023-02-12T03:40:33;99047.81;;;0.22;99.85
12146;BME280;6136;47.032;15.398;2023-02-12T03:43:03;99059.09;;;0.21;99.71
12146;BME280;6136;47.032;15.398;2023-02-12T03:45:39;99067.75;;;0.17;100.00
12146;BME280;6136;47.032;15.398;2023-02-12T03:48:16;99068.66;;;0.20;100.00
12146;BME280;6136;47.032;15.398;2023-02-12T03:50:51;99065.16;;;0.15;100.00
12146;BME280;6136;47.032;15.398;2023-02-12T03:53:21;99073.84;;;0.14;100.00
12146;BME280;6136;47.032;15.398;2023-02-12T03:55:53;99077.31;;;0.16;100.00
12146;BME280;6136;47.032;15.398;2023-02-12T03:58:27;99088.63;;;0.17;100.00
12146;BME280;6136;47.032;15.398;2023-02-12T04:00:56;99088.59;;;0.15;100.00
12146;BME280;6136;47.032;15.398;2023-02-12T04:03:28;99088.59;;;0.05;100.00
12146;BME280;6136;47.032;15.398;2023-02-12T04:05:56;99098.09;;;-0.08;100.00
12146;BME280;6136;47.032;15.398;2023-02-12T04:08:25;99097.16;;;-0.24;100.00
12146;BME280;6136;47.032;15.398;2023-02-12T04:11:06;99097.16;;;-0.24;100.00
12146;BME280;6136;47.032;15.398;2023-02-12T04:13:44;99103.13;;;-0.40;100.00
12146;BME280;6136;47.032;15.398;2023-02-12T04:16:21;99104.84;;;-0.41;100.00
12146;BME280;6136;47.032;15.398;2023-02-12T04:18:54;99113.47;;;-0.54;100.00
12146;BME280;6136;47.032;15.398;2023-02-12T04:21:36;99111.63;;;-0.68;100.00
12146;BME280;6136;47.032;15.398;2023-02-12T04:24:12;99101.16;;;-0.73;100.00
12146;BME280;6136;47.032;15.398;2023-02-12T04:26:48;99096.81;;;-0.77;100.00
12146;BME280;6136;47.032;15.398;2023-02-12T04:29:24;99085.50;;;-0.84;100.00
12146;BME280;6136;47.032;15.398;2023-02-12T04:31:56;99088.94;;;-0.89;100.00
12146;BME280;6136;47.032;15.398;2023-02-12T04:34:32;99079.28;;;-0.96;100.00
12146;BME280;6136;47.032;15.398;2023-02-12T04:37:06;99080.19;;;-0.97;100.00
12146;BME280;6136;47.032;15.398;2023-02-12T04:39:37;99079.16;;;-1.14;100.00
12146;BME280;6136;47.032;15.398;2023-02-12T04:42:08;99088.75;;;-1.12;100.00
12146;BME280;6136;47.032;15.398;2023-02-12T04:44:40;99101.72;;;-1.15;100.00
12146;BME280;6136;47.032;15.398;2023-02-12T04:47:10;99104.31;;;-1.13;100.00
12146;BME280;6136;47.032;15.398;2023-02-12T04:49:40;99112.94;;;-1.18;100.00
12146;BME280;6136;47.032;15.398;2023-02-12T04:52:08;99106.78;;;-1.26;100.00
12146;BME280;6136;47.032;15.398;2023-02-12T04:54:37;99112.03;;;-1.24;100.00
12146;BME280;6136;47.032;15.398;2023-02-12T04:57:05;99133.59;;;-1.36;100.00
12146;BME280;6136;47.032;15.398;2023-02-12T04:59:33;99123.91;;;-1.50;100.00
12146;BME280;6136;47.032;15.398;2023-02-12T05:02:01;99137.84;;;-1.44;100.00
12146;BME280;6136;47.032;15.398;2023-02-12T05:04:29;99139.50;;;-1.47;100.00
12146;BME280;6136;47.032;15.398;2023-02-12T05:06:59;99130.78;;;-1.57;100.00
12146;BME280;6136;47.032;15.398;2023-02-12T05:09:27;99150.72;;;-1.56;100.00
12146;BME280;6136;47.032;15.398;2023-02-12T05:11:55;99148.91;;;-1.60;100.00
12146;BME280;6136;47.032;15.398;2023-02-12T05:14:24;99150.59;;;-1.65;100.00
12146;BME280;6136;47.032;15.398;2023-02-12T05:16:52;99145.41;;;-1.65;100.00
12146;BME280;6136;47.032;15.398;2023-02-12T05:19:20;99154.06;;;-1.66;100.00
12146;BME280;6136;47.032;15.398;2023-02-12T05:21:49;99164.47;;;-1.65;100.00
12146;BME280;6136;47.032;15.398;2023-02-12T05:24:19;99154.91;;;-1.67;100.00
12146;BME280;6136;47.032;15.398;2023-02-12T05:26:48;99162.69;;;-1.69;100.00
12146;BME280;6136;47.032;15.398;2023-02-12T05:29:16;99167.06;;;-1.65;100.00
12146;BME280;6136;47.032;15.398;2023-02-12T05:31:44;99164.50;;;-1.60;100.00
12146;BME280;6136;47.032;15.398;2023-02-12T05:34:13;99162.75;;;-1.64;100.00
12146;BME280;6136;47.032;15.398;2023-02-12T05:36:41;99158.41;;;-1.65;100.00
12146;BME280;6136;47.032;15.398;2023-02-12T05:39:10;99169.81;;;-1.51;100.00
12146;BME280;6136;47.032;15.398;2023-02-12T05:41:39;99176.78;;;-1.47;100.00
12146;BME280;6136;47.032;15.398;2023-02-12T05:44:08;99180.34;;;-1.39;100.00
12146;BME280;6136;47.032;15.398;2023-02-12T05:46:37;99191.72;;;-1.29;100.00
12146;BME280;6136;47.032;15.398;2023-02-12T05:49:06;99192.63;;;-1.26;100.00
12146;BME280;6136;47.032;15.398;2023-02-12T05:51:34;99197.81;;;-1.26;100.00
12146;BME280;6136;47.032;15.398;2023-02-12T05:54:04;99195.28;;;-1.21;100.00
12146;BME280;6136;47.032;15.398;2023-02-12T05:56:34;99196.19;;;-1.19;100.00
12146;BME280;6136;47.032;15.398;2023-02-12T05:59:06;99202.25;;;-1.17;100.00
12146;BME280;6136;47.032;15.398;2023-02-12T06:01:37;99217.84;;;-1.19;100.00
12146;BME280;6136;47.032;15.398;2023-02-12T06:04:07;99233.47;;;-1.17;100.00
12146;BME280;6136;47.032;15.398;2023-02-12T06:06:38;99237.84;;;-1.14;100.00
12146;BME280;6136;47.032;15.398;2023-02-12T06:09:08;99232.69;;;-1.08;100.00
12146;BME280;6136;47.032;15.398;2023-02-12T06:11:36;99238.72;;;-1.11;100.00
12146;BME280;6136;47.032;15.398;2023-02-12T06:14:09;99247.47;;;-1.06;100.00
12146;BME280;6136;47.032;15.398;2023-02-12T06:16:38;99250.13;;;-1.01;100.00
12146;BME280;6136;47.032;15.398;2023-02-12T06:19:08;99245.84;;;-0.95;100.00
12146;BME280;6136;47.032;15.398;2023-02-12T06:21:36;99248.59;;;-0.83;100.00
12146;BME280;6136;47.032;15.398;2023-02-12T06:24:04;99245.16;;;-0.77;100.00
12146;BME280;6136;47.032;15.398;2023-02-12T06:26:33;99260.88;;;-0.65;100.00
12146;BME280;6136;47.032;15.398;2023-02-12T06:29:01;99267.00;;;-0.61;100.00
12146;BME280;6136;47.032;15.398;2023-02-12T06:31:32;99269.63;;;-0.58;100.00
12146;BME280;6136;47.032;15.398;2023-02-12T06:34:02;99276.63;;;-0.54;100.00
12146;BME280;6136;47.032;15.398;2023-02-12T06:36:31;99264.53;;;-0.48;100.00
12146;BME280;6136;47.032;15.398;2023-02-12T06:39:00;99271.56;;;-0.37;100.00
12146;BME280;6136;47.032;15.398;2023-02-12T06:41:28;99274.94;;;-0.48;100.00
12146;BME280;6136;47.032;15.398;2023-02-12T06:43:57;99278.44;;;-0.43;100.00
12146;BME280;6136;47.032;15.398;2023-02-12T06:46:25;99279.44;;;-0.27;100.00
12146;BME280;6136;47.032;15.398;2023-02-12T06:48:56;99281.19;;;-0.27;100.00
12146;BME280;6136;47.032;15.398;2023-02-12T06:51:25;99280.41;;;-0.17;100.00
12146;BME280;6136;47.032;15.398;2023-02-12T06:53:54;99281.28;;;-0.14;100.00
12146;BME280;6136;47.032;15.398;2023-02-12T06:56:25;99280.44;;;-0.13;100.00
12146;BME280;6136;47.032;15.398;2023-02-12T06:58:54;99292.69;;;0.00;100.00
12146;BME280;6136;47.032;15.398;2023-02-12T07:01:26;99302.31;;;0.11;100.00
12146;BME280;6136;47.032;15.398;2023-02-12T07:03:57;99305.03;;;0.21;100.00
12146;BME280;6136;47.032;15.398;2023-02-12T07:06:26;99296.41;;;0.34;100.00
12146;BME280;6136;47.032;15.398;2023-02-12T07:08:55;99298.19;;;0.45;100.00
12146;BME280;6136;47.032;15.398;2023-02-12T07:11:24;99297.38;;;0.55;100.00
12146;BME280;6136;47.032;15.398;2023-02-12T07:13:53;99307.00;;;0.65;100.00
12146;BME280;6136;47.032;15.398;2023-02-12T07:16:21;99306.22;;;0.80;100.00
12146;BME280;6136;47.032;15.398;2023-02-12T07:18:50;99292.31;;;0.87;100.00
12146;BME280;6136;47.032;15.398;2023-02-12T07:21:19;99305.38;;;0.88;100.00
12146;BME280;6136;47.032;15.398;2023-02-12T07:23:49;99307.16;;;1.01;100.00
12146;BME280;6136;47.032;15.398;2023-02-12T07:26:18;99308.97;;;1.17;100.00
12146;BME280;6136;47.032;15.398;2023-02-12T07:28:48;99308.09;;;1.17;99.56
12146;BME280;6136;47.032;15.398;2023-02-12T07:31:18;99304.66;;;1.26;98.02
12146;BME280;6136;47.032;15.398;2023-02-12T07:33:47;99318.59;;;1.44;96.58
12146;BME280;6136;47.032;15.398;2023-02-12T07:36:17;99304.69;;;1.58;95.96
12146;BME280;6136;47.032;15.398;2023-02-12T07:38:47;99300.34;;;1.85;94.89
12146;BME280;6136;47.032;15.398;2023-02-12T07:41:17;99303.84;;;2.12;94.04
12146;BME280;6136;47.032;15.398;2023-02-12T07:43:47;99302.06;;;2.44;93.52
12146;BME280;6136;47.032;15.398;2023-02-12T07:46:17;99303.72;;;2.72;90.29
12146;BME280;6136;47.032;15.398;2023-02-12T07:48:46;99309.75;;;2.93;87.24
12146;BME280;6136;47.032;15.398;2023-02-12T07:51:16;99308.78;;;3.18;84.70
12146;BME280;6136;47.032;15.398;2023-02-12T07:53:47;99305.16;;;3.40;83.19
12146;BME280;6136;47.032;15.398;2023-02-12T07:56:17;99310.28;;;3.59;81.59
12146;BME280;6136;47.032;15.398;2023-02-12T07:58:47;99305.75;;;3.79;79.65
12146;BME280;6136;47.032;15.398;2023-02-12T08:01:19;99315.25;;;3.95;80.32
12146;BME280;6136;47.032;15.398;2023-02-12T08:03:49;99302.81;;;4.18;78.70
12146;BME280;6136;47.032;15.398;2023-02-12T08:06:19;99311.44;;;4.33;77.39
12146;BME280;6136;47.032;15.398;2023-02-12T08:08:51;99304.84;;;4.79;76.66
12146;BME280;6136;47.032;15.398;2023-02-12T08:11:20;99312.28;;;5.13;75.17
12146;BME280;6136;47.032;15.398;2023-02-12T08:13:48;99314.38;;;5.55;72.12
12146;BME280;6136;47.032;15.398;2023-02-12T08:16:18;99316.38;;;5.98;69.34
12146;BME280;6136;47.032;15.398;2023-02-12T08:18:48;99313.88;;;6.42;66.94
12146;BME280;6136;47.032;15.398;2023-02-12T08:21:17;99308.09;;;6.70;64.50
12146;BME280;6136;47.032;15.398;2023-02-12T08:23:46;99315.53;;;7.37;62.29
12146;BME280;6136;47.032;15.398;2023-02-12T08:26:20;99306.00;;;7.70;61.83
12146;BME280;6136;47.032;15.398;2023-02-12T08:28:50;99317.06;;;8.58;58.41
12146;BME280;6136;47.032;15.398;2023-02-12T08:31:20;99298.88;;;8.46;58.49
12146;BME280;6136;47.032;15.398;2023-02-12T08:33:50;99300.38;;;8.56;56.54
12146;BME280;6136;47.032;15.398;2023-02-12T08:36:21;99305.53;;;8.25;57.25
12146;BME280;6136;47.032;15.398;2023-02-12T08:38:49;99301.66;;;8.40;57.37
12146;BME280;6136;47.032;15.398;2023-02-12T08:41:21;99307.22;;;8.63;56.53
12146;BME280;6136;47.032;15.398;2023-02-12T08:43:51;99297.25;;;9.05;54.98
12146;BME280;6136;47.032;15.398;2023-02-12T08:46:23;99296.75;;;9.51;53.99
12146;BME280;6136;47.032;15.398;2023-02-12T08:48:52;99300.19;;;9.83;52.39
12146;BME280;6136;47.032;15.398;2023-02-12T08:51:22;99293.09;;;9.85;52.20
12146;BME280;6136;47.032;15.398;2023-02-12T08:53:52;99301.97;;;10.10;51.25
12146;BME280;6136;47.032;15.398;2023-02-12T08:56:23;99304.28;;;9.65;51.25
12146;BME280;6136;47.032;15.398;2023-02-12T08:58:52;99308.38;;;9.47;51.79
12146;BME280;6136;47.032;15.398;2023-02-12T09:01:22;99308.09;;;10.12;49.37
12146;BME280;6136;47.032;15.398;2023-02-12T09:03:51;99318.31;;;11.00;47.53
12146;BME280;6136;47.032;15.398;2023-02-12T09:06:21;99312.06;;;11.26;47.89
12146;BME280;6136;47.032;15.398;2023-02-12T09:08:50;99324.50;;;11.01;47.41
12146;BME280;6136;47.032;15.398;2023-02-12T09:11:20;99329.53;;;10.59;46.98
12146;BME280;6136;47.032;15.398;2023-02-12T09:13:52;99329.72;;;10.52;45.77
12146;BME280;6136;47.032;15.398;2023-02-12T09:16:20;99332.91;;;10.62;43.84
12146;BME280;6136;47.032;15.398;2023-02-12T09:18:48;99332.94;;;10.87;44.65
12146;BME280;6136;47.032;15.398;2023-02-12T09:21:16;99327.34;;;10.70;45.19
12146;BME280;6136;47.032;15.398;2023-02-12T09:23:45;99343.16;;;10.73;43.84
12146;BME280;6136;47.032;15.398;2023-02-12T09:26:15;99335.00;;;11.27;43.18
12146;BME280;6136;47.032;15.398;2023-02-12T09:28:47;99321.53;;;11.10;42.63
12146;BME280;6136;47.032;15.398;2023-02-12T09:31:18;99335.53;;;11.37;42.87
12146;BME280;6136;47.032;15.398;2023-02-12T09:33:48;99352.56;;;10.57;42.82
12146;BME280;6136;47.032;15.398;2023-02-12T09:36:20;99348.78;;;10.09;45.41
12146;BME280;6136;47.032;15.398;2023-02-12T09:38:49;99363.94;;;9.47;47.37
12146;BME280;6136;47.032;15.398;2023-02-12T09:44:19;99360.81;;;10.74;45.75
12146;BME280;6136;47.032;15.398;2023-02-12T09:46:54;99360.91;;;11.45;44.77
12146;BME280;6136;47.032;15.398;2023-02-12T09:49:41;99360.72;;;11.96;43.62
12146;BME280;6136;47.032;15.398;2023-02-12T09:52:15;99356.53;;;12.56;43.50
12146;BME280;6136;47.032;15.398;2023-02-12T09:54:45;99362.44;;;13.25;42.75
12146;BME280;6136;47.032;15.398;2023-02-12T09:57:18;99354.63;;;14.34;40.99
12146;BME280;6136;47.032;15.398;2023-02-12T09:59:50;99348.75;;;14.64;39.48
12146;BME280;6136;47.032;15.398;2023-02-12T10:02:22;99357.22;;;14.72;38.45
12146;BME280;6136;47.032;15.398;2023-02-12T10:04:52;99348.59;;;14.84;37.51
12146;BME280;6136;47.032;15.398;2023-02-12T10:07:37;99359.91;;;15.57;36.80
12146;BME280;6136;47.032;15.398;2023-02-12T10:10:24;99352.59;;;15.93;36.47
12146;BME280;6136;47.032;15.398;2023-02-12T10:12:57;99347.56;;;16.18;35.92
12146;BME280;6136;47.032;15.398;2023-02-12T10:15:31;99342.22;;;16.34;34.81
12146;BME280;6136;47.032;15.398;2023-02-12T10:21:15;99332.88;;;16.41;34.11
12146;BME280;6136;47.032;15.398;2023-02-12T10:24:07;99337.00;;;16.92;34.59
12146;BME280;6136;47.032;15.398;2023-02-12T10:26:41;99331.69;;;17.21;33.56
12146;BME280;6136;47.032;15.398;2023-02-12T10:29:12;99327.88;;;16.66;33.72
12146;BME280;6136;47.032;15.398;2023-02-12T10:31:45;99340.91;;;16.87;33.71
12146;BME280;6136;47.032;15.398;2023-02-12T10:34:18;99333.22;;;16.51;33.09
12146;BME280;6136;47.032;15.398;2023-02-12T10:36:49;99333.91;;;17.42;31.85
12146;BME280;6136;47.032;15.398;2023-02-12T10:39:22;99332.13;;;18.00;30.46
12146;BME280;6136;47.032;15.398;2023-02-12T10:41:55;99326.78;;;18.27;29.63
12146;BME280;6136;47.032;15.398;2023-02-12T10:44:25;99329.88;;;18.20;29.66
12146;BME280;6136;47.032;15.398;2023-02-12T10:46:53;99325.75;;;18.42;30.27
12146;BME280;6136;47.032;15.398;2023-02-12T10:49:22;99323.41;;;17.96;30.67
12146;BME280;6136;47.032;15.398;2023-02-12T10:52:09;99322.22;;;18.14;28.94
12146;BME280;6136;47.032;15.398;2023-02-12T10:54:42;99333.88;;;18.81;28.06
12146;BME280;6136;47.032;15.398;2023-02-12T10:57:18;99322.97;;;18.16;28.47
12146;BME280;6136;47.032;15.398;2023-02-12T10:59:50;99320.56;;;18.92;27.71
12146;BME280;6136;47.032;15.398;2023-02-12T11:02:24;99326.59;;;18.96;28.37
12146;BME280;6136;47.032;15.398;2023-02-12T11:04:54;99319.59;;;17.72;30.29
12146;BME280;6136;47.032;15.398;2023-02-12T11:07:26;99321.47;;;16.83;31.21
12146;BME280;6136;47.032;15.398;2023-02-12T11:09:56;99328.41;;;16.26;33.23
12146;BME280;6136;47.032;15.398;2023-02-12T11:12:35;99327.66;;;15.93;33.79
12146;BME280;6136;47.032;15.398;2023-02-12T11:15:12;99322.16;;;16.41;33.70
12146;BME280;6136;47.032;15.398;2023-02-12T11:17:43;99320.50;;;17.28;32.05
12146;BME280;6136;47.032;15.398;2023-02-12T11:20:22;99309.53;;;17.75;31.24
12146;BME280;6136;47.032;15.398;2023-02-12T11:22:55;99303.66;;;17.97;31.53
12146;BME280;6136;47.032;15.398;2023-02-12T11:25:27;99307.03;;;17.58;32.14
12146;BME280;6136;47.032;15.398;2023-02-12T11:28:05;99301.81;;;17.71;32.01
12146;BME280;6136;47.032;15.398;2023-02-12T11:30:49;99300.16;;;17.54;32.03
12146;BME280;6136;47.032;15.398;2023-02-12T11:33:25;99301.41;;;18.45;30.58
12146;BME280;6136;47.032;15.398;2023-02-12T11:35:56;99300.59;;;19.09;30.21
12146;BME280;6136;47.032;15.398;2023-02-12T11:38:35;99295.75;;;20.14;28.47
12146;BME280;6136;47.032;15.398;2023-02-12T11:43:52;99295.63;;;18.90;29.90
12146;BME280;6136;47.032;15.398;2023-02-12T11:46:23;99299.47;;;18.20;30.96
12146;BME280;6136;47.032;15.398;2023-02-12T11:48:55;99308.81;;;17.01;32.90
12146;BME280;6136;47.032;15.398;2023-02-12T11:51:29;99302.84;;;16.36;34.28
12146;BME280;6136;47.032;15.398;2023-02-12T11:54:02;99296.22;;;15.80;34.81
12146;BME280;6136;47.032;15.398;2023-02-12T11:56:41;99303.66;;;15.09;36.97
12146;BME280;6136;47.032;15.398;2023-02-12T11:59:30;99297.00;;;15.67;36.02
12146;BME280;6136;47.032;15.398;2023-02-12T12:02:04;99289.22;;;15.29;36.29
12146;BME280;6136;47.032;15.398;2023-02-12T12:04:38;99298.66;;;15.03;36.80
12146;BME280;6136;47.032;15.398;2023-02-12T12:07:12;99287.31;;;14.98;36.96
12146;BME280;6136;47.032;15.398;2023-02-12T12:09:48;99296.28;;;14.97;37.37
12146;BME280;6136;47.032;15.398;2023-02-12T12:12:22;99294.25;;;15.02;36.72
12146;BME280;6136;47.032;15.398;2023-02-12T12:14:55;99294.00;;;15.40;36.54
12146;BME280;6136;47.032;15.398;2023-02-12T12:17:48;99280.91;;;15.51;36.33
12146;BME280;6136;47.032;15.398;2023-02-12T12:20:40;99271.81;;;15.86;35.58
12146;BME280;6136;47.032;15.398;2023-02-12T12:23:15;99261.53;;;15.47;35.89
12146;BME280;6136;47.032;15.398;2023-02-12T12:25:49;99273.78;;;14.86;37.58
12146;BME280;6136;47.032;15.398;2023-02-12T12:28:29;99276.81;;;14.95;37.85
12146;BME280;6136;47.032;15.398;2023-02-12T12:31:05;99269.53;;;14.82;37.86
12146;BME280;6136;47.032;15.398;2023-02-12T12:33:39;99269.00;;;14.58;38.46
12146;BME280;6136;47.032;15.398;2023-02-12T12:39:16;99256.25;;;15.30;37.00
12146;BME280;6136;47.032;15.398;2023-02-12T12:42:07;99260.25;;;15.22;37.25
12146;BME280;6136;47.032;15.398;2023-02-12T12:44:49;99251.31;;;15.56;36.91
12146;BME280;6136;47.032;15.398;2023-02-12T12:47:23;99233.69;;;15.99;36.25
12146;BME280;6136;47.032;15.398;2023-02-12T12:50:05;99230.84;;;17.20;35.02
12146;BME280;6136;47.032;15.398;2023-02-12T12:53:14;99232.78;;;17.32;34.79
12146;BME280;6136;47.032;15.398;2023-02-12T12:56:05;99225.72;;;17.58;34.73
12146;BME280;6136;47.032;15.398;2023-02-12T12:59:02;99225.59;;;18.54;32.97
12146;BME280;6136;47.032;15.398;2023-02-12T13:01:49;99227.41;;;18.80;32.23
12146;BME280;6136;47.032;15.398;2023-02-12T13:07:45;99220.88;;;18.18;32.56
12146;BME280;6136;47.032;15.398;2023-02-12T13:10:28;99207.16;;;18.62;31.21
12146;BME280;6136;47.032;15.398;2023-02-12T13:13:08;99221.41;;;18.50;31.96
12146;BME280;6136;47.032;15.398;2023-02-12T13:15:45;99222.03;;;18.80;30.97
12146;BME280;6136;47.032;15.398;2023-02-12T13:18:32;99221.59;;;19.12;30.69
12146;BME280;6136;47.032;15.398;2023-02-12T13:21:11;99214.59;;;19.09;30.66
12146;BME280;6136;47.032;15.398;2023-02-12T13:23:46;99220.81;;;18.59;31.32
12146;BME280;6136;47.032;15.398;2023-02-12T13:26:22;99215.44;;;18.19;32.64
12146;BME280;6136;47.032;15.398;2023-02-12T13:29:00;99217.00;;;18.09;31.81
12146;BME280;6136;47.032;15.398;2023-02-12T13:31:37;99215.00;;;18.26;31.90
12146;BME280;6136;47.032;15.398;2023-02-12T13:34:13;99214.94;;;18.67;31.66
12146;BME280;6136;47.032;15.398;2023-02-12T13:36:42;99218.69;;;19.15;31.22
12146;BME280;6136;47.032;15.398;2023-02-12T13:39:17;99211.16;;;18.94;31.52
12146;BME280;6136;47.032;15.398;2023-02-12T13:42:01;99224.06;;;18.89;30.89
12146;BME280;6136;47.032;15.398;2023-02-12T13:44:35;99207.91;;;19.27;30.08
12146;BME280;6136;47.032;15.398;2023-02-12T13:47:13;99209.09;;;18.20;31.35